sensor_id;sensor_type;location;lat;lon;timestamp;P1;durP1;ratioP1;P2;durP2;ratioP2
24419;SDS011;12599;52.426;13.330;2022-09-27T00:01:00;2.67;;;1.60;;
24419;SDS011;12599;52.426;13.330;2022-09-27T00:03:28;2.00;;;1.80;;
24419;SDS011;12599;52.426;13.330;2022-09-27T00:06:04;2.23;;;1.97;;
24419;SDS011;12599;52.426;13.330;2022-09-27T00:08:38;2.97;;;2.03;;
24419;SDS011;12599;52.426;13.330;2022-09-27T00:11:04;2.00;;;1.63;;
24419;SDS011;12599;52.426;13.330;2022-09-27T00:13:51;2.20;;;1.70;;
24419;SDS011;12599;52.426;13.330;2022-09-27T00:16:19;2.43;;;2.07;;
24419;SDS011;12599;52.426;13.330;2022-09-27T00:18:46;2.10;;;1.70;;
24419;SDS011;12599;52.426;13.330;2022-09-27T00:21:12;1.80;;;1.70;;
24419;SDS011;12599;52.426;13.330;2022-09-27T00:23:38;2.53;;;1.70;;
24419;SDS011;12599;52.426;13.330;2022-09-27T00:26:04;2.27;;;1.87;;
24419;SDS011;12599;52.426;13.330;2022-09-27T00:28:31;5.03;;;2.37;;
24419;SDS011;12599;52.426;13.330;2022-09-27T00:30:57;3.23;;;1.97;;
24419;SDS011;12599;52.426;13.330;2022-09-27T00:33:23;2.70;;;1.53;;
24419;SDS011;12599;52.426;13.330;2022-09-27T00:35:49;5.30;;;1.83;;
24419;SDS011;12599;52.426;13.330;2022-09-27T00:38:15;2.03;;;1.30;;
24419;SDS011;12599;52.426;13.330;2022-09-27T00:40:41;1.63;;;1.53;;
24419;SDS011;12599;52.426;13.330;2022-09-27T00:43:18;1.77;;;1.57;;
24419;SDS011;12599;52.426;13.330;2022-09-27T00:45:55;2.53;;;1.57;;
24419;SDS011;12599;52.426;13.330;2022-09-27T00:48:27;1.93;;;1.50;;
24419;SDS011;12599;52.426;13.330;2022-09-27T00:50:56;2.40;;;1.53;;
24419;SDS011;12599;52.426;13.330;2022-09-27T00:53:29;2.20;;;1.40;;
24419;SDS011;12599;52.426;13.330;2022-09-27T00:55:59;1.83;;;1.57;;
24419;SDS011;12599;52.426;13.330;2022-09-27T00:58:35;4.13;;;1.50;;
24419;SDS011;12599;52.426;13.330;2022-09-27T01:01:04;4.17;;;1.53;;
24419;SDS011;12599;52.426;13.330;2022-09-27T01:06:23;3.63;;;1.40;;
24419;SDS011;12599;52.426;13.330;2022-09-27T01:08:48;2.70;;;1.60;;
24419;SDS011;12599;52.426;13.330;2022-09-27T01:14:58;1.47;;;1.37;;
24419;SDS011;12599;52.426;13.330;2022-09-27T01:31:01;2.17;;;1.37;;
24419;SDS011;12599;52.426;13.330;2022-09-27T01:39:40;2.60;;;1.47;;
24419;SDS011;12599;52.426;13.330;2022-09-27T01:42:29;1.30;;;1.03;;
24419;SDS011;12599;52.426;13.330;2022-09-27T01:50:47;2.57;;;1.50;;
24419;SDS011;12599;52.426;13.330;2022-09-27T01:55:50;3.27;;;1.30;;
24419;SDS011;12599;52.426;13.330;2022-09-27T01:58:20;1.57;;;1.37;;
24419;SDS011;12599;52.426;13.330;2022-09-27T02:00:57;1.40;;;1.30;;
24419;SDS011;12599;52.426;13.330;2022-09-27T02:03:25;2.93;;;1.60;;
24419;SDS011;12599;52.426;13.330;2022-09-27T02:06:00;2.07;;;1.53;;
24419;SDS011;12599;52.426;13.330;2022-09-27T02:08:31;1.90;;;1.33;;
24419;SDS011;12599;52.426;13.330;2022-09-27T02:11:05;2.60;;;1.30;;
24419;SDS011;12599;52.426;13.330;2022-09-27T02:16:11;2.80;;;1.70;;
24419;SDS011;12599;52.426;13.330;2022-09-27T02:19:06;3.97;;;1.87;;
24419;SDS011;12599;52.426;13.330;2022-09-27T02:24:09;3.40;;;1.50;;
24419;SDS011;12599;52.426;13.330;2022-09-27T02:26:40;1.63;;;1.40;;
24419;SDS011;12599;52.426;13.330;2022-09-27T02:29:10;1.60;;;1.27;;
24419;SDS011;12599;52.426;13.330;2022-09-27T02:31:46;1.77;;;1.37;;
24419;SDS011;12599;52.426;13.330;2022-09-27T02:34:16;1.67;;;1.07;;
24419;SDS011;12599;52.426;13.330;2022-09-27T02:36:46;3.07;;;1.60;;
24419;SDS011;12599;52.426;13.330;2022-09-27T02:39:12;2.67;;;1.37;;
24419;SDS011;12599;52.426;13.330;2022-09-27T02:41:38;5.13;;;1.40;;
24419;SDS011;12599;52.426;13.330;2022-09-27T02:44:08;1.50;;;1.40;;
24419;SDS011;12599;52.426;13.330;2022-09-27T03:01:15;4.47;;;1.47;;
24419;SDS011;12599;52.426;13.330;2022-09-27T03:03:48;5.03;;;1.50;;
24419;SDS011;12599;52.426;13.330;2022-09-27T03:06:18;2.07;;;1.33;;
24419;SDS011;12599;52.426;13.330;2022-09-27T03:08:46;2.37;;;1.47;;
24419;SDS011;12599;52.426;13.330;2022-09-27T03:11:13;2.13;;;1.47;;
24419;SDS011;12599;52.426;13.330;2022-09-27T03:13:38;2.93;;;1.40;;
24419;SDS011;12599;52.426;13.330;2022-09-27T03:16:04;1.50;;;1.40;;
24419;SDS011;12599;52.426;13.330;2022-09-27T03:18:31;2.03;;;1.43;;
24419;SDS011;12599;52.426;13.330;2022-09-27T03:20:57;3.87;;;1.40;;
24419;SDS011;12599;52.426;13.330;2022-09-27T03:23:23;2.53;;;1.40;;
24419;SDS011;12599;52.426;13.330;2022-09-27T03:25:49;3.97;;;1.77;;
24419;SDS011;12599;52.426;13.330;2022-09-27T03:28:15;1.40;;;1.30;;
24419;SDS011;12599;52.426;13.330;2022-09-27T03:30:43;1.37;;;1.27;;
24419;SDS011;12599;52.426;13.330;2022-09-27T03:33:09;2.30;;;1.70;;
24419;SDS011;12599;52.426;13.330;2022-09-27T03:35:35;1.60;;;1.50;;
24419;SDS011;12599;52.426;13.330;2022-09-27T03:38:02;1.77;;;1.40;;
24419;SDS011;12599;52.426;13.330;2022-09-27T03:40:28;4.30;;;1.83;;
24419;SDS011;12599;52.426;13.330;2022-09-27T03:42:54;2.03;;;1.83;;
24419;SDS011;12599;52.426;13.330;2022-09-27T03:45:20;2.53;;;1.80;;
24419;SDS011;12599;52.426;13.330;2022-09-27T03:47:46;1.70;;;1.60;;
24419;SDS011;12599;52.426;13.330;2022-09-27T03:50:12;2.17;;;1.60;;
24419;SDS011;12599;52.426;13.330;2022-09-27T03:52:38;2.67;;;1.93;;
24419;SDS011;12599;52.426;13.330;2022-09-27T03:55:06;3.30;;;1.80;;
24419;SDS011;12599;52.426;13.330;2022-09-27T03:57:32;2.63;;;1.70;;
24419;SDS011;12599;52.426;13.330;2022-09-27T03:59:57;3.60;;;1.83;;
24419;SDS011;12599;52.426;13.330;2022-09-27T04:02:24;4.50;;;2.07;;
24419;SDS011;12599;52.426;13.330;2022-09-27T04:04:51;3.63;;;1.90;;
24419;SDS011;12599;52.426;13.330;2022-09-27T04:07:16;2.20;;;1.90;;
24419;SDS011;12599;52.426;13.330;2022-09-27T04:09:42;1.60;;;1.50;;
24419;SDS011;12599;52.426;13.330;2022-09-27T04:12:08;2.37;;;2.10;;
24419;SDS011;12599;52.426;13.330;2022-09-27T04:14:34;1.73;;;1.63;;
24419;SDS011;12599;52.426;13.330;2022-09-27T04:17:00;1.83;;;1.70;;
24419;SDS011;12599;52.426;13.330;2022-09-27T04:19:26;3.93;;;2.20;;
24419;SDS011;12599;52.426;13.330;2022-09-27T04:21:51;4.30;;;1.90;;
24419;SDS011;12599;52.426;13.330;2022-09-27T04:24:17;3.60;;;1.83;;
24419;SDS011;12599;52.426;13.330;2022-09-27T04:26:43;1.77;;;1.60;;
24419;SDS011;12599;52.426;13.330;2022-09-27T04:29:08;2.33;;;1.97;;
24419;SDS011;12599;52.426;13.330;2022-09-27T04:31:35;1.93;;;1.70;;
24419;SDS011;12599;52.426;13.330;2022-09-27T04:34:02;1.67;;;1.50;;
24419;SDS011;12599;52.426;13.330;2022-09-27T04:36:32;3.40;;;1.73;;
24419;SDS011;12599;52.426;13.330;2022-09-27T04:38:59;3.03;;;2.10;;
24419;SDS011;12599;52.426;13.330;2022-09-27T04:41:27;3.97;;;1.83;;
24419;SDS011;12599;52.426;13.330;2022-09-27T04:43:54;2.67;;;1.90;;
24419;SDS011;12599;52.426;13.330;2022-09-27T04:46:20;4.80;;;2.17;;
24419;SDS011;12599;52.426;13.330;2022-09-27T04:48:46;4.37;;;2.27;;
24419;SDS011;12599;52.426;13.330;2022-09-27T04:51:13;3.00;;;2.20;;
24419;SDS011;12599;52.426;13.330;2022-09-27T04:53:45;2.47;;;2.10;;
24419;SDS011;12599;52.426;13.330;2022-09-27T04:56:11;3.43;;;2.30;;
24419;SDS011;12599;52.426;13.330;2022-09-27T04:58:38;4.23;;;2.53;;
24419;SDS011;12599;52.426;13.330;2022-09-27T05:01:04;2.50;;;1.93;;
24419;SDS011;12599;52.426;13.330;2022-09-27T05:03:31;4.03;;;2.60;;
24419;SDS011;12599;52.426;13.330;2022-09-27T05:05:57;4.13;;;2.53;;
24419;SDS011;12599;52.426;13.330;2022-09-27T05:08:25;3.97;;;2.47;;
24419;SDS011;12599;52.426;13.330;2022-09-27T05:10:51;2.87;;;1.93;;
24419;SDS011;12599;52.426;13.330;2022-09-27T05:13:17;2.43;;;2.10;;
24419;SDS011;12599;52.426;13.330;2022-09-27T05:15:43;3.00;;;2.20;;
24419;SDS011;12599;52.426;13.330;2022-09-27T05:18:09;2.27;;;1.93;;
24419;SDS011;12599;52.426;13.330;2022-09-27T05:20:35;3.07;;;2.23;;
24419;SDS011;12599;52.426;13.330;2022-09-27T05:23:01;3.67;;;2.47;;
24419;SDS011;12599;52.426;13.330;2022-09-27T05:25:28;3.47;;;2.10;;
24419;SDS011;12599;52.426;13.330;2022-09-27T05:27:55;3.53;;;2.60;;
24419;SDS011;12599;52.426;13.330;2022-09-27T05:30:22;3.77;;;2.30;;
24419;SDS011;12599;52.426;13.330;2022-09-27T05:32:48;3.80;;;2.73;;
24419;SDS011;12599;52.426;13.330;2022-09-27T05:35:14;4.13;;;2.23;;
24419;SDS011;12599;52.426;13.330;2022-09-27T05:37:42;4.57;;;2.50;;
24419;SDS011;12599;52.426;13.330;2022-09-27T05:40:08;2.43;;;2.23;;
24419;SDS011;12599;52.426;13.330;2022-09-27T05:42:36;4.47;;;2.83;;
24419;SDS011;12599;52.426;13.330;2022-09-27T05:45:04;5.67;;;2.53;;
24419;SDS011;12599;52.426;13.330;2022-09-27T05:47:31;3.77;;;2.70;;
24419;SDS011;12599;52.426;13.330;2022-09-27T05:49:56;2.80;;;2.53;;
24419;SDS011;12599;52.426;13.330;2022-09-27T05:52:22;2.97;;;2.07;;
24419;SDS011;12599;52.426;13.330;2022-09-27T05:54:47;3.80;;;2.40;;
24419;SDS011;12599;52.426;13.330;2022-09-27T05:57:13;8.27;;;2.70;;
24419;SDS011;12599;52.426;13.330;2022-09-27T05:59:38;4.13;;;2.37;;
24419;SDS011;12599;52.426;13.330;2022-09-27T06:02:05;2.80;;;2.00;;
24419;SDS011;12599;52.426;13.330;2022-09-27T06:04:30;5.97;;;2.30;;
24419;SDS011;12599;52.426;13.330;2022-09-27T06:06:56;3.80;;;2.27;;
24419;SDS011;12599;52.426;13.330;2022-09-27T06:09:23;2.47;;;2.27;;
24419;SDS011;12599;52.426;13.330;2022-09-27T06:11:49;4.23;;;2.30;;
24419;SDS011;12599;52.426;13.330;2022-09-27T06:14:15;4.27;;;2.20;;
24419;SDS011;12599;52.426;13.330;2022-09-27T06:16:40;3.77;;;2.13;;
24419;SDS011;12599;52.426;13.330;2022-09-27T06:19:06;3.50;;;2.47;;
24419;SDS011;12599;52.426;13.330;2022-09-27T06:21:31;4.67;;;2.23;;
24419;SDS011;12599;52.426;13.330;2022-09-27T06:23:57;4.27;;;2.30;;
24419;SDS011;12599;52.426;13.330;2022-09-27T06:26:26;2.83;;;2.33;;
24419;SDS011;12599;52.426;13.330;2022-09-27T06:28:52;2.33;;;2.13;;
24419;SDS011;12599;52.426;13.330;2022-09-27T06:31:18;2.30;;;2.10;;
24419;SDS011;12599;52.426;13.330;2022-09-27T06:33:44;2.87;;;2.33;;
24419;SDS011;12599;52.426;13.330;2022-09-27T06:36:10;2.33;;;2.10;;
24419;SDS011;12599;52.426;13.330;2022-09-27T06:38:35;3.73;;;2.30;;
24419;SDS011;12599;52.426;13.330;2022-09-27T06:41:02;2.53;;;2.30;;
24419;SDS011;12599;52.426;13.330;2022-09-27T06:43:30;3.90;;;2.47;;
24419;SDS011;12599;52.426;13.330;2022-09-27T06:45:58;3.70;;;2.00;;
24419;SDS011;12599;52.426;13.330;2022-09-27T06:48:29;2.63;;;2.27;;
24419;SDS011;12599;52.426;13.330;2022-09-27T06:50:56;4.13;;;2.10;;
24419;SDS011;12599;52.426;13.330;2022-09-27T06:53:22;3.93;;;2.00;;
24419;SDS011;12599;52.426;13.330;2022-09-27T06:55:48;2.47;;;1.97;;
24419;SDS011;12599;52.426;13.330;2022-09-27T06:58:15;3.33;;;2.03;;
24419;SDS011;12599;52.426;13.330;2022-09-27T07:00:59;2.87;;;2.20;;
24419;SDS011;12599;52.426;13.330;2022-09-27T07:03:25;2.80;;;2.47;;
24419;SDS011;12599;52.426;13.330;2022-09-27T07:05:56;3.80;;;2.13;;
24419;SDS011;12599;52.426;13.330;2022-09-27T07:08:26;4.70;;;2.30;;
24419;SDS011;12599;52.426;13.330;2022-09-27T07:10:55;5.30;;;3.07;;
24419;SDS011;12599;52.426;13.330;2022-09-27T07:13:29;4.30;;;2.90;;
24419;SDS011;12599;52.426;13.330;2022-09-27T07:15:56;5.73;;;2.40;;
24419;SDS011;12599;52.426;13.330;2022-09-27T07:18:23;2.87;;;2.20;;
24419;SDS011;12599;52.426;13.330;2022-09-27T07:20:48;4.00;;;2.57;;
24419;SDS011;12599;52.426;13.330;2022-09-27T07:23:17;4.43;;;2.37;;
24419;SDS011;12599;52.426;13.330;2022-09-27T07:25:43;3.17;;;2.60;;
24419;SDS011;12599;52.426;13.330;2022-09-27T07:28:09;5.77;;;2.23;;
24419;SDS011;12599;52.426;13.330;2022-09-27T07:30:41;2.00;;;1.53;;
24419;SDS011;12599;52.426;13.330;2022-09-27T07:33:07;4.47;;;2.20;;
24419;SDS011;12599;52.426;13.330;2022-09-27T07:35:34;5.13;;;2.33;;
24419;SDS011;12599;52.426;13.330;2022-09-27T07:38:04;4.57;;;2.23;;
24419;SDS011;12599;52.426;13.330;2022-09-27T07:40:32;5.30;;;2.27;;
24419;SDS011;12599;52.426;13.330;2022-09-27T07:43:02;3.53;;;2.30;;
24419;SDS011;12599;52.426;13.330;2022-09-27T07:45:31;4.90;;;2.10;;
24419;SDS011;12599;52.426;13.330;2022-09-27T07:47:57;3.90;;;2.10;;
24419;SDS011;12599;52.426;13.330;2022-09-27T07:50:22;3.67;;;2.30;;
24419;SDS011;12599;52.426;13.330;2022-09-27T07:52:48;3.27;;;2.10;;
24419;SDS011;12599;52.426;13.330;2022-09-27T07:55:18;2.93;;;1.93;;
24419;SDS011;12599;52.426;13.330;2022-09-27T07:57:44;3.63;;;2.10;;
24419;SDS011;12599;52.426;13.330;2022-09-27T08:00:14;4.00;;;2.10;;
24419;SDS011;12599;52.426;13.330;2022-09-27T08:02:44;2.57;;;1.87;;
24419;SDS011;12599;52.426;13.330;2022-09-27T08:05:10;2.67;;;1.77;;
24419;SDS011;12599;52.426;13.330;2022-09-27T08:07:37;2.30;;;2.10;;
24419;SDS011;12599;52.426;13.330;2022-09-27T08:10:04;2.57;;;2.20;;
24419;SDS011;12599;52.426;13.330;2022-09-27T08:12:33;3.33;;;1.83;;
24419;SDS011;12599;52.426;13.330;2022-09-27T08:14:59;2.63;;;1.87;;
24419;SDS011;12599;52.426;13.330;2022-09-27T08:17:27;3.83;;;1.77;;
24419;SDS011;12599;52.426;13.330;2022-09-27T08:19:52;2.83;;;1.63;;
24419;SDS011;12599;52.426;13.330;2022-09-27T08:22:19;2.20;;;1.70;;
24419;SDS011;12599;52.426;13.330;2022-09-27T08:24:45;4.27;;;2.13;;
24419;SDS011;12599;52.426;13.330;2022-09-27T08:27:11;3.43;;;1.70;;
24419;SDS011;12599;52.426;13.330;2022-09-27T08:29:37;1.70;;;1.60;;
24419;SDS011;12599;52.426;13.330;2022-09-27T08:32:05;2.53;;;2.00;;
24419;SDS011;12599;52.426;13.330;2022-09-27T08:34:32;2.87;;;1.90;;
24419;SDS011;12599;52.426;13.330;2022-09-27T08:36:57;3.37;;;2.87;;
24419;SDS011;12599;52.426;13.330;2022-09-27T08:39:23;3.10;;;1.97;;
24419;SDS011;12599;52.426;13.330;2022-09-27T08:46:44;1.83;;;1.70;;
24419;SDS011;12599;52.426;13.330;2022-09-27T08:49:13;4.23;;;2.10;;
24419;SDS011;12599;52.426;13.330;2022-09-27T08:51:50;1.70;;;1.60;;
24419;SDS011;12599;52.426;13.330;2022-09-27T08:56:52;2.77;;;2.10;;
24419;SDS011;12599;52.426;13.330;2022-09-27T08:59:24;2.80;;;2.13;;
24419;SDS011;12599;52.426;13.330;2022-09-27T09:01:54;1.90;;;1.80;;
24419;SDS011;12599;52.426;13.330;2022-09-27T09:04:24;2.30;;;2.10;;
24419;SDS011;12599;52.426;13.330;2022-09-27T09:15:58;3.60;;;2.40;;
24419;SDS011;12599;52.426;13.330;2022-09-27T09:21:33;2.43;;;1.97;;
24419;SDS011;12599;52.426;13.330;2022-09-27T09:27:08;2.20;;;1.90;;
24419;SDS011;12599;52.426;13.330;2022-09-27T09:32:37;2.10;;;2.00;;
24419;SDS011;12599;52.426;13.330;2022-09-27T09:35:23;3.07;;;1.80;;
24419;SDS011;12599;52.426;13.330;2022-09-27T09:37:54;3.50;;;2.20;;
24419;SDS011;12599;52.426;13.330;2022-09-27T09:40:25;2.10;;;1.90;;
24419;SDS011;12599;52.426;13.330;2022-09-27T09:42:59;4.57;;;2.10;;
24419;SDS011;12599;52.426;13.330;2022-09-27T09:45:34;4.37;;;2.20;;
24419;SDS011;12599;52.426;13.330;2022-09-27T09:50:50;3.10;;;2.10;;
24419;SDS011;12599;52.426;13.330;2022-09-27T09:56:30;5.47;;;2.60;;
24419;SDS011;12599;52.426;13.330;2022-09-27T09:59:08;3.90;;;2.40;;
24419;SDS011;12599;52.426;13.330;2022-09-27T10:01:57;2.20;;;2.10;;
24419;SDS011;12599;52.426;13.330;2022-09-27T10:04:45;3.43;;;2.33;;
24419;SDS011;12599;52.426;13.330;2022-09-27T10:07:11;2.93;;;2.30;;
24419;SDS011;12599;52.426;13.330;2022-09-27T10:09:37;2.43;;;2.20;;
24419;SDS011;12599;52.426;13.330;2022-09-27T10:12:04;3.67;;;2.00;;
24419;SDS011;12599;52.426;13.330;2022-09-27T10:14:33;2.60;;;2.17;;
24419;SDS011;12599;52.426;13.330;2022-09-27T10:16:59;2.33;;;2.00;;
24419;SDS011;12599;52.426;13.330;2022-09-27T10:19:33;2.17;;;2.07;;
24419;SDS011;12599;52.426;13.330;2022-09-27T10:24:56;2.10;;;1.90;;
24419;SDS011;12599;52.426;13.330;2022-09-27T10:27:25;3.37;;;2.07;;
24419;SDS011;12599;52.426;13.330;2022-09-27T10:29:57;2.30;;;2.10;;
24419;SDS011;12599;52.426;13.330;2022-09-27T10:32:28;4.23;;;2.50;;
24419;SDS011;12599;52.426;13.330;2022-09-27T10:35:17;3.03;;;2.10;;
24419;SDS011;12599;52.426;13.330;2022-09-27T10:37:45;2.50;;;2.30;;
24419;SDS011;12599;52.426;13.330;2022-09-27T10:40:44;2.43;;;1.93;;
24419;SDS011;12599;52.426;13.330;2022-09-27T10:43:11;2.80;;;1.90;;
24419;SDS011;12599;52.426;13.330;2022-09-27T10:45:59;1.97;;;1.80;;
24419;SDS011;12599;52.426;13.330;2022-09-27T10:48:33;2.30;;;2.10;;
24419;SDS011;12599;52.426;13.330;2022-09-27T10:51:01;2.93;;;2.03;;
24419;SDS011;12599;52.426;13.330;2022-09-27T10:53:28;3.87;;;2.10;;
24419;SDS011;12599;52.426;13.330;2022-09-27T10:55:55;2.60;;;1.83;;
24419;SDS011;12599;52.426;13.330;2022-09-27T10:58:26;3.13;;;1.90;;
24419;SDS011;12599;52.426;13.330;2022-09-27T11:00:58;3.97;;;2.00;;
24419;SDS011;12599;52.426;13.330;2022-09-27T11:03:28;2.27;;;2.07;;
24419;SDS011;12599;52.426;13.330;2022-09-27T11:05:57;2.30;;;1.80;;
24419;SDS011;12599;52.426;13.330;2022-09-27T11:08:27;2.37;;;2.10;;
24419;SDS011;12599;52.426;13.330;2022-09-27T11:14:04;2.53;;;2.00;;
24419;SDS011;12599;52.426;13.330;2022-09-27T11:28:01;5.63;;;2.30;;
24419;SDS011;12599;52.426;13.330;2022-09-27T11:33:31;2.50;;;2.30;;
24419;SDS011;12599;52.426;13.330;2022-09-27T11:39:18;3.33;;;1.80;;
24419;SDS011;12599;52.426;13.330;2022-09-27T11:58:59;5.17;;;1.20;;
24419;SDS011;12599;52.426;13.330;2022-09-27T12:04:53;2.97;;;1.00;;
24419;SDS011;12599;52.426;13.330;2022-09-27T12:10:15;2.37;;;1.43;;
24419;SDS011;12599;52.426;13.330;2022-09-27T12:12:43;1.93;;;1.20;;
24419;SDS011;12599;52.426;13.330;2022-09-27T12:15:18;2.73;;;1.70;;
24419;SDS011;12599;52.426;13.330;2022-09-27T12:17:50;4.17;;;1.90;;
24419;SDS011;12599;52.426;13.330;2022-09-27T12:20:34;3.53;;;1.80;;
24419;SDS011;12599;52.426;13.330;2022-09-27T12:23:13;4.57;;;2.53;;
24419;SDS011;12599;52.426;13.330;2022-09-27T12:25:46;4.17;;;2.63;;
24419;SDS011;12599;52.426;13.330;2022-09-27T12:28:20;5.57;;;2.23;;
24419;SDS011;12599;52.426;13.330;2022-09-27T12:36:50;2.53;;;1.60;;
24419;SDS011;12599;52.426;13.330;2022-09-27T12:42:27;3.27;;;1.70;;
24419;SDS011;12599;52.426;13.330;2022-09-27T12:44:57;2.00;;;1.50;;
24419;SDS011;12599;52.426;13.330;2022-09-27T12:52:30;2.43;;;1.73;;
24419;SDS011;12599;52.426;13.330;2022-09-27T12:58:00;2.90;;;1.57;;
24419;SDS011;12599;52.426;13.330;2022-09-27T13:03:18;2.67;;;1.53;;
24419;SDS011;12599;52.426;13.330;2022-09-27T13:14:10;2.10;;;1.57;;
24419;SDS011;12599;52.426;13.330;2022-09-27T13:16:45;1.90;;;1.80;;
24419;SDS011;12599;52.426;13.330;2022-09-27T13:22:34;3.90;;;2.03;;
24419;SDS011;12599;52.426;13.330;2022-09-27T13:25:16;3.00;;;1.90;;
24419;SDS011;12599;52.426;13.330;2022-09-27T13:36:16;2.70;;;1.73;;
24419;SDS011;12599;52.426;13.330;2022-09-27T13:39:00;2.40;;;1.77;;
24419;SDS011;12599;52.426;13.330;2022-09-27T13:46:51;2.83;;;1.90;;
24419;SDS011;12599;52.426;13.330;2022-09-27T13:49:29;6.47;;;2.00;;
24419;SDS011;12599;52.426;13.330;2022-09-27T14:00:04;2.07;;;1.50;;
24419;SDS011;12599;52.426;13.330;2022-09-27T14:02:37;1.60;;;1.50;;
24419;SDS011;12599;52.426;13.330;2022-09-27T14:05:10;1.60;;;1.50;;
24419;SDS011;12599;52.426;13.330;2022-09-27T14:07:41;2.67;;;1.50;;
24419;SDS011;12599;52.426;13.330;2022-09-27T14:10:11;1.47;;;1.37;;
24419;SDS011;12599;52.426;13.330;2022-09-27T14:12:40;2.50;;;1.37;;
24419;SDS011;12599;52.426;13.330;2022-09-27T14:15:09;1.43;;;1.33;;
24419;SDS011;12599;52.426;13.330;2022-09-27T14:17:46;2.17;;;1.27;;
24419;SDS011;12599;52.426;13.330;2022-09-27T14:20:28;2.50;;;1.60;;
24419;SDS011;12599;52.426;13.330;2022-09-27T14:23:03;4.20;;;1.50;;
24419;SDS011;12599;52.426;13.330;2022-09-27T14:25:30;1.40;;;1.30;;
24419;SDS011;12599;52.426;13.330;2022-09-27T14:27:56;3.67;;;1.60;;
24419;SDS011;12599;52.426;13.330;2022-09-27T14:30:24;1.93;;;1.67;;
24419;SDS011;12599;52.426;13.330;2022-09-27T14:32:55;3.23;;;1.47;;
24419;SDS011;12599;52.426;13.330;2022-09-27T14:35:28;2.77;;;1.53;;
24419;SDS011;12599;52.426;13.330;2022-09-27T14:38:20;3.37;;;1.90;;
24419;SDS011;12599;52.426;13.330;2022-09-27T14:41:00;2.70;;;1.50;;
24419;SDS011;12599;52.426;13.330;2022-09-27T14:43:27;4.43;;;2.00;;
24419;SDS011;12599;52.426;13.330;2022-09-27T14:45:57;2.30;;;2.10;;
24419;SDS011;12599;52.426;13.330;2022-09-27T14:48:27;2.43;;;2.10;;
24419;SDS011;12599;52.426;13.330;2022-09-27T14:50:59;4.37;;;2.33;;
24419;SDS011;12599;52.426;13.330;2022-09-27T14:53:33;2.37;;;1.93;;
24419;SDS011;12599;52.426;13.330;2022-09-27T14:56:10;2.70;;;2.10;;
24419;SDS011;12599;52.426;13.330;2022-09-27T14:58:42;2.40;;;2.20;;
24419;SDS011;12599;52.426;13.330;2022-09-27T15:01:13;2.70;;;2.03;;
24419;SDS011;12599;52.426;13.330;2022-09-27T15:03:40;4.10;;;2.60;;
24419;SDS011;12599;52.426;13.330;2022-09-27T15:06:08;4.10;;;2.10;;
24419;SDS011;12599;52.426;13.330;2022-09-27T15:08:34;3.57;;;2.37;;
24419;SDS011;12599;52.426;13.330;2022-09-27T15:11:02;2.70;;;2.23;;
24419;SDS011;12599;52.426;13.330;2022-09-27T15:13:31;3.20;;;1.97;;
24419;SDS011;12599;52.426;13.330;2022-09-27T15:15:58;3.70;;;2.47;;
24419;SDS011;12599;52.426;13.330;2022-09-27T15:21:03;4.07;;;2.67;;
24419;SDS011;12599;52.426;13.330;2022-09-27T15:23:43;3.23;;;2.40;;
24419;SDS011;12599;52.426;13.330;2022-09-27T15:26:22;4.10;;;2.80;;
24419;SDS011;12599;52.426;13.330;2022-09-27T15:28:49;3.93;;;3.07;;
24419;SDS011;12599;52.426;13.330;2022-09-27T15:31:16;6.10;;;3.20;;
24419;SDS011;12599;52.426;13.330;2022-09-27T15:33:52;4.73;;;3.10;;
24419;SDS011;12599;52.426;13.330;2022-09-27T15:36:49;5.97;;;3.57;;
24419;SDS011;12599;52.426;13.330;2022-09-27T15:39:14;5.93;;;3.57;;
24419;SDS011;12599;52.426;13.330;2022-09-27T15:44:45;5.50;;;3.40;;
24419;SDS011;12599;52.426;13.330;2022-09-27T15:49:56;5.17;;;3.47;;
24419;SDS011;12599;52.426;13.330;2022-09-27T15:55:15;3.87;;;3.00;;
24419;SDS011;12599;52.426;13.330;2022-09-27T15:57:44;4.07;;;3.13;;
24419;SDS011;12599;52.426;13.330;2022-09-27T16:00:12;3.53;;;3.00;;
24419;SDS011;12599;52.426;13.330;2022-09-27T16:02:42;4.23;;;3.27;;
24419;SDS011;12599;52.426;13.330;2022-09-27T16:05:08;3.97;;;3.10;;
24419;SDS011;12599;52.426;13.330;2022-09-27T16:07:35;5.53;;;3.53;;
24419;SDS011;12599;52.426;13.330;2022-09-27T16:10:00;4.70;;;3.27;;
24419;SDS011;12599;52.426;13.330;2022-09-27T16:12:26;7.73;;;3.40;;
24419;SDS011;12599;52.426;13.330;2022-09-27T16:14:54;4.57;;;3.03;;
24419;SDS011;12599;52.426;13.330;2022-09-27T16:17:20;3.23;;;2.80;;
24419;SDS011;12599;52.426;13.330;2022-09-27T16:19:46;4.90;;;2.70;;
24419;SDS011;12599;52.426;13.330;2022-09-27T16:22:12;7.70;;;2.70;;
24419;SDS011;12599;52.426;13.330;2022-09-27T16:24:37;3.70;;;2.60;;
24419;SDS011;12599;52.426;13.330;2022-09-27T16:27:03;3.23;;;2.70;;
24419;SDS011;12599;52.426;13.330;2022-09-27T16:29:29;3.13;;;2.43;;
24419;SDS011;12599;52.426;13.330;2022-09-27T16:31:54;4.37;;;2.60;;
24419;SDS011;12599;52.426;13.330;2022-09-27T16:34:21;5.00;;;3.37;;
24419;SDS011;12599;52.426;13.330;2022-09-27T16:36:48;3.43;;;2.80;;
24419;SDS011;12599;52.426;13.330;2022-09-27T16:39:13;4.30;;;3.30;;
24419;SDS011;12599;52.426;13.330;2022-09-27T16:41:39;6.90;;;3.50;;
24419;SDS011;12599;52.426;13.330;2022-09-27T16:44:09;4.40;;;3.70;;
24419;SDS011;12599;52.426;13.330;2022-09-27T16:46:41;4.37;;;3.23;;
24419;SDS011;12599;52.426;13.330;2022-09-27T16:49:11;5.37;;;3.63;;
24419;SDS011;12599;52.426;13.330;2022-09-27T16:51:55;4.53;;;3.80;;
24419;SDS011;12599;52.426;13.330;2022-09-27T16:54:24;5.20;;;3.43;;
24419;SDS011;12599;52.426;13.330;2022-09-27T16:56:52;4.27;;;3.40;;
24419;SDS011;12599;52.426;13.330;2022-09-27T16:59:18;6.20;;;3.80;;
24419;SDS011;12599;52.426;13.330;2022-09-27T17:01:45;4.60;;;3.60;;
24419;SDS011;12599;52.426;13.330;2022-09-27T17:04:11;4.20;;;3.20;;
24419;SDS011;12599;52.426;13.330;2022-09-27T17:06:38;5.20;;;3.73;;
24419;SDS011;12599;52.426;13.330;2022-09-27T17:09:04;5.40;;;4.10;;
24419;SDS011;12599;52.426;13.330;2022-09-27T17:11:30;9.13;;;5.50;;
24419;SDS011;12599;52.426;13.330;2022-09-27T17:13:56;8.40;;;4.57;;
24419;SDS011;12599;52.426;13.330;2022-09-27T17:16:22;6.87;;;4.90;;
24419;SDS011;12599;52.426;13.330;2022-09-27T17:18:48;8.90;;;4.73;;
24419;SDS011;12599;52.426;13.330;2022-09-27T17:29:00;8.73;;;4.47;;
24419;SDS011;12599;52.426;13.330;2022-09-27T17:31:27;6.97;;;4.60;;
24419;SDS011;12599;52.426;13.330;2022-09-27T17:33:55;6.97;;;4.23;;
24419;SDS011;12599;52.426;13.330;2022-09-27T17:36:21;4.87;;;3.73;;
24419;SDS011;12599;52.426;13.330;2022-09-27T17:38:49;7.17;;;4.17;;
24419;SDS011;12599;52.426;13.330;2022-09-27T17:41:20;5.67;;;4.30;;
24419;SDS011;12599;52.426;13.330;2022-09-27T17:43:50;5.57;;;4.17;;
24419;SDS011;12599;52.426;13.330;2022-09-27T17:46:17;5.80;;;4.27;;
24419;SDS011;12599;52.426;13.330;2022-09-27T17:48:44;11.60;;;5.10;;
24419;SDS011;12599;52.426;13.330;2022-09-27T17:51:29;5.93;;;3.70;;
24419;SDS011;12599;52.426;13.330;2022-09-27T17:53:56;8.13;;;4.23;;
24419;SDS011;12599;52.426;13.330;2022-09-27T17:56:22;7.83;;;4.10;;
24419;SDS011;12599;52.426;13.330;2022-09-27T17:58:51;11.03;;;5.90;;
24419;SDS011;12599;52.426;13.330;2022-09-27T18:01:18;11.33;;;6.10;;
24419;SDS011;12599;52.426;13.330;2022-09-27T18:03:45;6.27;;;3.80;;
24419;SDS011;12599;52.426;13.330;2022-09-27T18:06:12;7.90;;;4.17;;
24419;SDS011;12599;52.426;13.330;2022-09-27T18:08:42;8.63;;;5.63;;
24419;SDS011;12599;52.426;13.330;2022-09-27T18:11:12;7.67;;;4.97;;